createdAt,value
2022-08-20T00:00:22.398Z,21.19
2022-08-20T00:02:54.258Z,21.26
2022-08-20T00:05:25.053Z,21.50
2022-08-20T00:07:52.940Z,21.56
2022-08-20T00:10:21.233Z,21.65
2022-08-20T00:12:50.961Z,21.62
2022-08-20T00:15:23.578Z,21.55
2022-08-20T00:17:52.656Z,21.66
2022-08-20T00:20:23.237Z,21.61
2022-08-20T00:22:51.121Z,21.60
2022-08-20T00:25:19.193Z,21.61
2022-08-20T00:27:46.860Z,21.61
2022-08-20T00:30:16.354Z,21.59
2022-08-20T00:32:48.175Z,21.71
2022-08-20T00:35:17.314Z,21.71
2022-08-20T00:37:45.402Z,21.79
2022-08-20T00:40:22.038Z,21.81
2022-08-20T00:42:54.045Z,21.84
2022-08-20T00:45:22.439Z,21.94
2022-08-20T00:47:52.054Z,21.91
2022-08-20T00:50:27.294Z,21.88
2022-08-20T00:52:55.449Z,21.85
2022-08-20T00:55:31.088Z,21.85
2022-08-20T00:58:03.965Z,21.81
2022-08-20T01:00:34.449Z,21.81
2022-08-20T01:03:03.968Z,21.76
2022-08-20T01:05:31.931Z,21.76
2022-08-20T01:08:00.774Z,21.78
2022-08-20T01:10:34.661Z,21.76
2022-08-20T01:13:08.416Z,21.75
2022-08-20T01:15:43.017Z,21.75
2022-08-20T01:18:14.579Z,21.71
2022-08-20T01:20:45.270Z,21.65
2022-08-20T01:23:30.372Z,21.61
2022-08-20T01:26:06.040Z,21.65
2022-08-20T01:28:39.405Z,21.61
2022-08-20T01:31:09.004Z,21.58
2022-08-20T01:33:37.066Z,21.56
2022-08-20T01:36:05.791Z,21.58
2022-08-20T01:38:34.830Z,21.62
2022-08-20T01:41:22.783Z,21.39
2022-08-20T01:43:57.211Z,21.45
2022-08-20T01:46:28.803Z,21.40
2022-08-20T01:48:58.349Z,21.39
2022-08-20T01:51:29.572Z,21.43
2022-08-20T01:54:00.017Z,21.40
2022-08-20T01:56:31.483Z,21.41
2022-08-20T01:59:02.745Z,21.45
2022-08-20T02:01:45.867Z,21.43
2022-08-20T02:04:16.769Z,21.43
2022-08-20T02:06:56.784Z,21.43
2022-08-20T02:09:27.228Z,21.43
2022-08-20T02:11:57.454Z,21.31
2022-08-20T02:14:26.490Z,21.46
2022-08-20T02:16:54.963Z,21.42
2022-08-20T02:19:29.046Z,21.36
2022-08-20T02:22:02.822Z,21.38
2022-08-20T02:24:31.147Z,21.49
2022-08-20T02:27:03.509Z,21.57
2022-08-20T02:29:31.219Z,21.50
2022-08-20T02:32:31.178Z,21.52
2022-08-20T02:34:46.814Z,21.49
2022-08-20T02:37:16.483Z,21.49
2022-08-20T02:39:44.231Z,21.43
2022-08-20T02:42:13.339Z,21.55
2022-08-20T02:44:41.476Z,21.44
2022-08-20T02:47:09.395Z,21.47
2022-08-20T02:49:37.175Z,21.55
2022-08-20T02:52:05.394Z,21.50
2022-08-20T02:54:33.125Z,21.34
2022-08-20T02:57:02.282Z,21.46
2022-08-20T02:59:31.511Z,21.52
2022-08-20T03:02:00.271Z,21.50
2022-08-20T03:04:29.061Z,21.63
2022-08-20T03:06:56.952Z,21.53
2022-08-20T03:09:24.751Z,21.49
2022-08-20T03:11:52.823Z,21.59
2022-08-20T03:14:20.715Z,21.45
2022-08-20T03:16:49.998Z,21.56
2022-08-20T03:19:17.808Z,21.49
2022-08-20T03:21:45.679Z,21.52
2022-08-20T03:24:13.563Z,21.61
2022-08-20T03:26:41.374Z,21.72
2022-08-20T03:29:09.412Z,21.67
2022-08-20T03:31:37.499Z,21.54
2022-08-20T03:34:07.117Z,21.66
2022-08-20T03:36:34.922Z,21.75
2022-08-20T03:39:11.613Z,21.71
2022-08-20T03:41:39.646Z,21.66
2022-08-20T03:44:07.823Z,21.47
2022-08-20T03:46:36.046Z,21.71
2022-08-20T03:49:04.443Z,21.61
2022-08-20T03:51:45.825Z,21.66
2022-08-20T03:54:22.132Z,21.53
2022-08-20T03:56:49.991Z,21.53
2022-08-20T03:59:17.790Z,21.58
2022-08-20T04:01:46.743Z,21.53
2022-08-20T04:04:15.068Z,21.68
2022-08-20T04:06:44.297Z,21.62
2022-08-20T04:09:12.600Z,21.74
2022-08-20T04:11:40.470Z,21.66
2022-08-20T04:14:09.256Z,21.64
2022-08-20T04:16:40.375Z,21.67
2022-08-20T04:19:09.222Z,21.70
2022-08-20T04:21:37.843Z,21.60
2022-08-20T04:24:07.622Z,21.59
2022-08-20T04:26:49.859Z,21.63
2022-08-20T04:29:17.514Z,21.56
2022-08-20T04:31:45.215Z,21.47
2022-08-20T04:34:13.391Z,21.49
2022-08-20T04:36:41.433Z,21.43
2022-08-20T04:39:10.418Z,21.42
2022-08-20T04:41:38.059Z,21.36
2022-08-20T04:44:05.729Z,21.23
2022-08-20T04:46:33.568Z,21.19
2022-08-20T04:49:03.291Z,21.16
2022-08-20T04:51:31.748Z,21.19
2022-08-20T04:53:59.833Z,21.20
2022-08-20T04:56:31.562Z,21.20
2022-08-20T04:59:01.830Z,21.17
2022-08-20T05:01:29.941Z,21.03
2022-08-20T05:03:59.137Z,21.00
2022-08-20T05:06:30.543Z,21.03
2022-08-20T05:09:00.101Z,21.00
2022-08-20T05:11:35.324Z,20.97
2022-08-20T05:14:05.404Z,20.99
2022-08-20T05:16:37.812Z,20.91
2022-08-20T05:19:05.980Z,20.94
2022-08-20T05:21:33.955Z,20.90
2022-08-20T05:24:03.046Z,20.94
2022-08-20T05:26:33.145Z,21.02
2022-08-20T05:29:00.870Z,21.13
2022-08-20T05:31:31.607Z,21.11
2022-08-20T05:34:01.851Z,21.07
2022-08-20T05:36:29.932Z,21.17
2022-08-20T05:38:57.898Z,21.20
2022-08-20T05:41:29.227Z,21.37
2022-08-20T05:44:01.577Z,21.32
2022-08-20T05:46:32.276Z,21.33
2022-08-20T05:49:01.749Z,21.19
2022-08-20T05:51:29.805Z,21.40
2022-08-20T05:53:59.412Z,21.38
2022-08-20T05:56:30.786Z,21.35
2022-08-20T05:59:03.470Z,21.37
2022-08-20T06:01:31.342Z,21.24
2022-08-20T06:04:17.101Z,21.21
2022-08-20T06:06:47.134Z,21.18
2022-08-20T06:09:31.438Z,21.30
2022-08-20T06:12:00.359Z,21.28
2022-08-20T06:14:29.541Z,21.26
2022-08-20T06:17:03.583Z,21.37
2022-08-20T06:19:32.763Z,21.27
2022-08-20T06:22:01.062Z,21.40
2022-08-20T06:24:29.036Z,21.39
2022-08-20T06:26:57.430Z,21.49
2022-08-20T06:29:25.111Z,21.53
2022-08-20T06:31:54.215Z,21.54
2022-08-20T06:34:21.896Z,21.53
2022-08-20T06:36:49.804Z,21.60
2022-08-20T06:39:18.482Z,21.52
2022-08-20T06:41:46.235Z,21.63
2022-08-20T06:44:14.254Z,21.77
2022-08-20T06:46:43.314Z,21.78
2022-08-20T06:49:13.604Z,21.80
2022-08-20T06:51:41.541Z,21.76
2022-08-20T06:54:09.376Z,21.70
2022-08-20T06:56:37.120Z,21.78
2022-08-20T06:59:04.866Z,21.84
2022-08-20T07:01:32.876Z,21.85
2022-08-20T07:04:00.647Z,21.73
2022-08-20T07:06:29.895Z,21.79
2022-08-20T07:08:57.932Z,21.62
2022-08-20T07:11:28.404Z,21.74
2022-08-20T07:13:59.302Z,21.93
2022-08-20T07:16:27.978Z,21.87
2022-08-20T07:18:56.922Z,22.07
2022-08-20T07:21:24.745Z,22.10
2022-08-20T07:23:54.931Z,22.11
2022-08-20T07:26:23.087Z,22.23
2022-08-20T07:28:50.847Z,22.24
2022-08-20T07:31:35.990Z,22.31
2022-08-20T07:34:04.344Z,22.56
2022-08-20T07:36:32.382Z,22.61
2022-08-20T07:39:06.031Z,22.55
2022-08-20T07:41:34.444Z,22.80
2022-08-20T07:44:02.381Z,22.82
2022-08-20T07:46:31.649Z,22.89
2022-08-20T07:49:00.012Z,23.15
2022-08-20T07:51:28.556Z,23.16
2022-08-20T07:53:58.133Z,23.41
2022-08-20T07:56:28.002Z,23.87
2022-08-20T07:58:59.316Z,23.95
2022-08-20T08:01:30.403Z,23.69
2022-08-20T08:03:59.379Z,23.71
2022-08-20T08:06:31.115Z,23.72
2022-08-20T08:09:04.019Z,23.74
2022-08-20T08:11:39.698Z,23.95
2022-08-20T08:14:09.430Z,23.88
2022-08-20T08:16:38.110Z,24.37
2022-08-20T08:19:12.127Z,24.43
2022-08-20T08:21:39.976Z,24.21
2022-08-20T08:24:08.325Z,24.18
2022-08-20T08:26:37.412Z,23.99
2022-08-20T08:29:07.500Z,24.18
2022-08-20T08:31:35.350Z,24.27
2022-08-20T08:34:03.135Z,24.20
2022-08-20T08:36:30.911Z,24.16
2022-08-20T08:38:58.561Z,24.32
2022-08-20T08:41:32.095Z,24.23
2022-08-20T08:44:08.065Z,24.13
2022-08-20T08:46:41.283Z,24.11
2022-08-20T08:49:13.098Z,24.28
2022-08-20T08:51:43.666Z,24.38
2022-08-20T08:54:16.861Z,24.75
2022-08-20T08:56:50.409Z,25.77
2022-08-20T08:59:21.294Z,25.96
2022-08-20T09:01:55.465Z,25.58
2022-08-20T09:04:31.648Z,25.35
2022-08-20T09:07:00.963Z,25.49
2022-08-20T09:09:33.779Z,25.82
2022-08-20T09:12:06.290Z,25.80
2022-08-20T09:14:38.745Z,25.63
2022-08-20T09:17:07.201Z,25.43
2022-08-20T09:19:34.995Z,25.23
2022-08-20T09:22:08.534Z,25.36
2022-08-20T09:24:36.269Z,25.05
2022-08-20T09:27:03.971Z,25.41
2022-08-20T09:29:32.633Z,25.59
2022-08-20T09:32:13.336Z,25.97
2022-08-20T09:34:43.451Z,27.02
2022-08-20T09:37:12.356Z,26.46
2022-08-20T09:39:40.753Z,26.04
2022-08-20T09:42:10.082Z,26.23
2022-08-20T09:44:37.743Z,27.14
2022-08-20T09:47:05.742Z,26.96
2022-08-20T09:49:35.010Z,27.69
2022-08-20T09:52:04.378Z,27.28
2022-08-20T09:54:33.738Z,27.71
2022-08-20T09:57:04.473Z,28.48
2022-08-20T09:59:33.343Z,28.56
2022-08-20T10:02:01.063Z,28.74
2022-08-20T10:04:28.797Z,29.14
2022-08-20T10:06:58.223Z,29.54
2022-08-20T10:09:26.827Z,29.48
2022-08-20T10:11:54.471Z,30.07
2022-08-20T10:14:22.174Z,29.94
2022-08-20T10:16:59.196Z,29.96
2022-08-20T10:19:28.662Z,29.72
2022-08-20T10:21:58.880Z,28.60
2022-08-20T10:24:27.121Z,28.19
2022-08-20T10:26:57.130Z,28.11
2022-08-20T10:29:25.006Z,27.75
2022-08-20T10:31:53.198Z,29.26
2022-08-20T10:34:20.943Z,29.40
2022-08-20T10:36:48.585Z,29.41
2022-08-20T10:39:17.625Z,29.14
2022-08-20T10:41:45.263Z,28.75
2022-08-20T10:44:12.876Z,29.35
2022-08-20T10:46:40.566Z,29.52
2022-08-20T10:49:08.259Z,30.84
2022-08-20T10:51:35.931Z,31.51
2022-08-20T10:54:08.183Z,29.87
2022-08-20T10:56:41.522Z,30.16
2022-08-20T10:59:09.348Z,30.09
2022-08-20T11:01:37.276Z,30.09
2022-08-20T11:04:05.767Z,30.07
2022-08-20T11:06:33.432Z,29.20
2022-08-20T11:09:01.230Z,28.89
2022-08-20T11:11:29.815Z,28.77
2022-08-20T11:14:00.254Z,28.93
2022-08-20T11:16:27.928Z,28.50
2022-08-20T11:18:55.562Z,28.27
2022-08-20T11:21:23.435Z,28.45
2022-08-20T11:23:51.095Z,28.49
2022-08-20T11:26:23.036Z,29.20
2022-08-20T11:28:50.713Z,28.54
2022-08-20T11:31:19.744Z,28.82
2022-08-20T11:33:47.431Z,29.62
2022-08-20T11:36:15.062Z,29.81
2022-08-20T11:38:42.943Z,29.67
2022-08-20T11:41:10.625Z,29.81
2022-08-20T11:43:38.262Z,30.35
2022-08-20T11:46:06.099Z,29.81
2022-08-20T11:48:35.190Z,30.00
2022-08-20T11:51:02.886Z,31.09
2022-08-20T11:53:30.774Z,30.39
2022-08-20T11:56:00.170Z,29.78
2022-08-20T11:58:28.351Z,30.64
2022-08-20T12:00:56.028Z,30.48
2022-08-20T12:03:23.796Z,30.23
2022-08-20T12:05:52.918Z,30.25
2022-08-20T12:08:27.655Z,30.43
2022-08-20T12:10:56.988Z,31.10
2022-08-20T12:13:30.795Z,31.38
2022-08-20T12:16:12.305Z,31.76
2022-08-20T12:18:40.028Z,31.90
2022-08-20T12:21:08.981Z,31.81
2022-08-20T12:23:36.643Z,31.61
2022-08-20T12:26:04.430Z,31.48
2022-08-20T12:28:32.705Z,31.31
2022-08-20T12:31:00.352Z,31.79
2022-08-20T12:33:27.986Z,31.68
2022-08-20T12:35:55.729Z,30.73
2022-08-20T12:38:24.910Z,31.17
2022-08-20T12:40:52.613Z,31.48
2022-08-20T12:43:24.644Z,31.65
2022-08-20T12:45:52.759Z,31.52
2022-08-20T12:48:21.181Z,31.11
2022-08-20T12:50:50.034Z,31.19
2022-08-20T12:53:17.681Z,30.81
2022-08-20T12:55:47.074Z,30.79
2022-08-20T12:58:14.802Z,30.72
2022-08-20T13:00:48.586Z,30.97
2022-08-20T13:03:18.464Z,30.65
2022-08-20T13:05:46.263Z,31.06
2022-08-20T13:08:14.180Z,31.65
2022-08-20T13:10:45.645Z,31.83
2022-08-20T13:13:17.509Z,31.08
2022-08-20T13:15:48.858Z,31.44
2022-08-20T13:18:16.734Z,30.72
2022-08-20T13:20:44.791Z,31.38
2022-08-20T13:23:12.443Z,31.50
2022-08-20T13:25:40.116Z,31.57
2022-08-20T13:28:08.060Z,31.60
2022-08-20T13:30:38.684Z,32.08
2022-08-20T13:33:06.423Z,31.70
2022-08-20T13:35:34.660Z,31.48
2022-08-20T13:38:02.311Z,30.89
2022-08-20T13:40:30.030Z,31.57
2022-08-20T13:42:57.963Z,31.25
2022-08-20T13:45:25.751Z,31.19
2022-08-20T13:47:55.982Z,31.41
2022-08-20T13:50:25.880Z,31.27
2022-08-20T13:52:53.875Z,31.19
2022-08-20T13:55:24.308Z,31.35
2022-08-20T13:57:53.065Z,31.63
2022-08-20T14:00:31.462Z,31.65
2022-08-20T14:03:01.639Z,31.41
2022-08-20T14:05:29.586Z,31.18
2022-08-20T14:07:57.606Z,31.38
2022-08-20T14:10:31.304Z,31.63
2022-08-20T14:12:59.575Z,31.86
2022-08-20T14:15:27.468Z,31.99
2022-08-20T14:17:57.310Z,32.63
2022-08-20T14:20:29.491Z,31.62
2022-08-20T14:23:01.035Z,31.68
2022-08-20T14:25:29.367Z,32.23
2022-08-20T14:27:57.857Z,32.47
2022-08-20T14:30:27.815Z,32.05
2022-08-20T14:32:56.028Z,31.89
2022-08-20T14:35:24.455Z,31.47
2022-08-20T14:37:56.441Z,31.06
2022-08-20T14:40:26.770Z,31.52
2022-08-20T14:42:55.305Z,32.35
2022-08-20T14:45:23.878Z,33.01
2022-08-20T14:47:54.162Z,32.65
2022-08-20T14:50:26.049Z,31.30
2022-08-20T14:52:55.914Z,31.24
2022-08-20T14:55:25.994Z,31.22
2022-08-20T14:57:54.107Z,31.35
2022-08-20T15:00:24.101Z,31.51
2022-08-20T15:02:52.388Z,31.66
2022-08-20T15:05:20.212Z,31.07
2022-08-20T15:07:51.868Z,31.11
2022-08-20T15:10:26.117Z,30.96
2022-08-20T15:12:53.899Z,31.13
2022-08-20T15:15:22.630Z,30.87
2022-08-20T15:17:52.285Z,30.92
2022-08-20T15:20:22.399Z,31.07
2022-08-20T15:22:50.955Z,31.31
2022-08-20T15:25:21.903Z,31.25
2022-08-20T15:27:51.742Z,31.55
2022-08-20T15:30:22.170Z,31.49
2022-08-20T15:32:54.816Z,31.07
2022-08-20T15:35:24.306Z,31.22
2022-08-20T15:37:54.792Z,31.31
2022-08-20T15:40:28.212Z,31.53
2022-08-20T15:42:58.587Z,31.40
2022-08-20T15:45:26.981Z,31.46
2022-08-20T15:48:00.202Z,31.66
2022-08-20T15:51:00.223Z,30.62
2022-08-20T15:53:32.884Z,30.88
2022-08-20T15:56:11.228Z,30.96
2022-08-20T15:58:52.519Z,30.48
2022-08-20T16:01:33.743Z,30.68
2022-08-20T16:04:22.299Z,30.70
2022-08-20T16:06:52.758Z,31.04
2022-08-20T16:09:41.298Z,30.42
2022-08-20T16:12:12.552Z,30.13
2022-08-20T16:14:45.779Z,29.94
2022-08-20T16:17:18.042Z,30.30
2022-08-20T16:19:57.177Z,30.31
2022-08-20T16:22:28.044Z,30.61
2022-08-20T16:24:55.818Z,30.55
2022-08-20T16:27:35.334Z,30.40
2022-08-20T16:30:08.478Z,30.37
2022-08-20T16:32:44.133Z,30.21
2022-08-20T16:35:29.644Z,30.19
2022-08-20T16:38:07.732Z,30.20
2022-08-20T16:40:44.193Z,29.85
2022-08-20T16:43:24.263Z,29.87
2022-08-20T16:45:59.955Z,29.84
2022-08-20T16:48:34.852Z,29.45
2022-08-20T16:51:07.477Z,29.43
2022-08-20T16:53:36.719Z,29.60
2022-08-20T16:56:05.282Z,29.70
2022-08-20T16:58:33.140Z,29.41
2022-08-20T17:01:08.971Z,29.13
2022-08-20T17:03:40.476Z,29.16
2022-08-20T17:06:18.311Z,29.11
2022-08-20T17:08:49.901Z,29.09
2022-08-20T17:11:24.654Z,29.05
2022-08-20T17:14:08.329Z,28.72
2022-08-20T17:16:40.059Z,28.69
2022-08-20T17:19:12.270Z,28.56
2022-08-20T17:21:41.290Z,28.25
2022-08-20T17:24:16.865Z,28.01
2022-08-20T17:26:47.849Z,28.31
2022-08-20T17:29:18.441Z,28.26
2022-08-20T17:31:50.488Z,28.12
2022-08-20T17:34:20.653Z,28.25
2022-08-20T17:36:52.314Z,28.15
2022-08-20T17:39:21.410Z,27.83
2022-08-20T17:41:51.362Z,28.07
2022-08-20T17:44:23.086Z,27.87
2022-08-20T17:46:53.624Z,27.79
2022-08-20T17:49:34.650Z,27.71
2022-08-20T17:52:05.745Z,27.52
2022-08-20T17:54:38.250Z,27.52
2022-08-20T17:57:10.599Z,27.41
2022-08-20T18:00:01.356Z,27.42
2022-08-20T18:02:32.239Z,27.32
2022-08-20T18:04:59.958Z,27.28
2022-08-20T18:07:32.186Z,27.04
2022-08-20T18:10:07.243Z,27.09
2022-08-20T18:12:41.391Z,27.09
2022-08-20T18:15:14.527Z,26.99
2022-08-20T18:18:03.231Z,26.91
2022-08-20T18:20:43.905Z,26.70
2022-08-20T18:23:15.775Z,26.53
2022-08-20T18:25:48.254Z,26.52
2022-08-20T18:28:19.943Z,26.30
2022-08-20T18:30:51.584Z,25.98
2022-08-20T18:33:29.958Z,25.90
2022-08-20T18:36:10.002Z,25.67
2022-08-20T18:38:41.903Z,25.61
2022-08-20T18:41:16.546Z,25.50
2022-08-20T18:43:44.766Z,25.32
2022-08-20T18:46:21.863Z,25.01
2022-08-20T18:48:57.843Z,24.89
2022-08-20T18:51:32.565Z,24.81
2022-08-20T18:54:00.440Z,24.77
2022-08-20T18:56:40.699Z,24.54
2022-08-20T18:59:18.105Z,24.59
2022-08-20T19:01:48.755Z,24.47
2022-08-20T19:04:28.508Z,24.23
2022-08-20T19:07:00.005Z,24.11
2022-08-20T19:09:43.271Z,23.99
2022-08-20T19:12:24.058Z,24.10
2022-08-20T19:14:59.332Z,24.02
2022-08-20T19:17:42.515Z,23.93
2022-08-20T19:20:19.159Z,24.06
2022-08-20T19:22:48.494Z,24.07
2022-08-20T19:25:29.242Z,24.04
2022-08-20T19:27:58.031Z,23.68
2022-08-20T19:30:35.454Z,23.61
2022-08-20T19:33:03.669Z,23.52
2022-08-20T19:35:33.153Z,23.42
2022-08-20T19:38:02.192Z,23.21
2022-08-20T19:40:33.003Z,23.07
2022-08-20T19:43:12.152Z,22.87
2022-08-20T19:45:42.587Z,22.78
2022-08-20T19:48:31.981Z,22.77
2022-08-20T19:51:10.114Z,22.66
2022-08-20T19:53:44.078Z,22.56
2022-08-20T19:56:15.854Z,22.52
2022-08-20T19:58:43.905Z,22.36
2022-08-20T20:01:17.584Z,22.51
2022-08-20T20:03:56.672Z,22.43
2022-08-20T20:06:26.951Z,22.59
2022-08-20T20:08:58.908Z,22.46
2022-08-20T20:11:34.264Z,22.26
2022-08-20T20:14:05.080Z,22.34
2022-08-20T20:16:34.448Z,22.09
2022-08-20T20:19:25.404Z,22.21
2022-08-20T20:22:01.844Z,21.94
2022-08-20T20:24:31.945Z,21.90
2022-08-20T20:27:00.471Z,21.81
2022-08-20T20:29:34.904Z,21.70
2022-08-20T20:32:16.062Z,21.43
2022-08-20T20:34:55.379Z,21.38
2022-08-20T20:37:44.646Z,21.27
2022-08-20T20:40:25.675Z,21.28
2022-08-20T20:43:03.530Z,21.12
2022-08-20T20:45:35.614Z,21.02
2022-08-20T20:48:15.600Z,20.96
2022-08-20T20:50:43.345Z,20.84
2022-08-20T20:53:13.169Z,20.72
2022-08-20T20:55:42.647Z,20.70
2022-08-20T20:58:10.300Z,20.51
2022-08-20T21:00:37.948Z,20.35
2022-08-20T21:03:05.690Z,20.25
2022-08-20T21:05:33.834Z,20.31
2022-08-20T21:08:04.031Z,20.24
2022-08-20T21:10:37.017Z,20.29
2022-08-20T21:13:05.298Z,20.19
2022-08-20T21:15:34.686Z,20.02
2022-08-20T21:18:03.637Z,20.00
2022-08-20T21:20:32.498Z,19.78
2022-08-20T21:23:00.190Z,19.62
2022-08-20T21:25:29.979Z,19.74
2022-08-20T21:27:59.163Z,19.58
2022-08-20T21:30:28.102Z,19.75
2022-08-20T21:32:55.966Z,19.57
2022-08-20T21:35:23.677Z,19.56
2022-08-20T21:37:51.798Z,19.46
2022-08-20T21:40:21.590Z,19.39
2022-08-20T21:42:50.058Z,19.26
2022-08-20T21:45:20.507Z,19.18
2022-08-20T21:47:49.101Z,19.20
2022-08-20T21:50:18.639Z,19.25
2022-08-20T21:52:52.491Z,19.36
2022-08-20T21:55:29.075Z,19.15
2022-08-20T21:57:56.925Z,19.21
2022-08-20T22:00:49.826Z,19.20
2022-08-20T22:03:20.221Z,19.18
2022-08-20T22:05:48.605Z,19.04
2022-08-20T22:08:16.324Z,19.22
2022-08-20T22:10:44.018Z,19.13
2022-08-20T22:13:12.029Z,19.11
2022-08-20T22:15:40.476Z,18.83
2022-08-20T22:18:09.933Z,18.72
2022-08-20T22:20:37.755Z,18.67
2022-08-20T22:23:06.873Z,18.68
2022-08-20T22:25:35.665Z,18.56
2022-08-20T22:28:03.555Z,18.54
2022-08-20T22:30:32.455Z,18.32
2022-08-20T22:33:03.277Z,18.12
2022-08-20T22:35:33.303Z,18.00
2022-08-20T22:38:01.215Z,18.05
2022-08-20T22:40:28.665Z,18.09
2022-08-20T22:42:56.323Z,18.19
2022-08-20T22:45:24.282Z,18.06
2022-08-20T22:47:51.820Z,17.85
2022-08-20T22:50:20.470Z,17.79
2022-08-20T22:52:49.306Z,17.78
2022-08-20T22:55:17.068Z,17.70
2022-08-20T22:57:47.626Z,17.60
2022-08-20T23:00:16.760Z,17.49
2022-08-20T23:02:45.343Z,17.56
2022-08-20T23:05:15.664Z,17.43
2022-08-20T23:07:43.330Z,17.41
2022-08-20T23:10:12.699Z,17.36
2022-08-20T23:12:40.226Z,17.40
2022-08-20T23:15:08.410Z,17.31
2022-08-20T23:17:37.943Z,17.34
2022-08-20T23:20:06.024Z,17.34
2022-08-20T23:22:33.726Z,17.25
2022-08-20T23:25:01.394Z,17.20
2022-08-20T23:27:32.387Z,17.21
2022-08-20T23:30:00.006Z,17.13
2022-08-20T23:32:27.642Z,17.13
2022-08-20T23:34:55.653Z,17.12
2022-08-20T23:37:23.341Z,16.92
2022-08-20T23:39:51.075Z,16.88
2022-08-20T23:42:19.213Z,16.82
2022-08-20T23:44:48.303Z,16.82
2022-08-20T23:47:20.689Z,16.86
2022-08-20T23:49:48.666Z,16.90
2022-08-20T23:52:16.394Z,16.72
2022-08-20T23:54:44.133Z,16.75
2022-08-20T23:57:11.863Z,16.66
2022-08-20T23:59:41.529Z,16.61
